Time;durP1;ratioP1;P1;durP2;ratioP2;P2;SDS_P1;SDS_P2;PMS_P1;PMS_P2;Temp;Humidity;BMP_temperature;BMP_pressure;BME280_temperature;BME280_humidity;BME280_pressure;Samples;Min_cycle;Max_cycle;Signal;HPM_P1;HPM_P2
2023/09/21 00:01:12;;;;;;;11.00;7.00;;;;;;;17.97;57.73;99640.94;4983324;28;20046;-90
2023/09/21 00:03:40;;;;;;;13.13;6.30;;;;;;;18.05;57.77;99667.66;5039316;23;20060;-90
2023/09/21 00:06:06;;;;;;;11.43;6.22;;;;;;;17.91;57.68;99641.53;5024517;28;20049;-91
2023/09/21 00:08:34;;;;;;;11.52;6.22;;;;;;;18.01;58.03;99661.22;5043024;28;20429;-90
2023/09/21 00:11:09;;;;;;;9.07;6.20;;;;;;;18.00;57.79;99661.56;5028426;28;20048;-91
2023/09/21 00:13:39;;;;;;;14.05;6.43;;;;;;;17.95;58.24;99650.75;5053235;28;20037;-90
2023/09/21 00:16:10;;;;;;;42.42;8.35;;;;;;;17.89;58.54;99652.97;5051895;28;20045;-91
2023/09/21 00:18:43;;;;;;;33.42;7.32;;;;;;;17.72;59.01;99629.19;5069034;28;20094;-92
2023/09/21 00:21:12;;;;;;;20.00;6.32;;;;;;;17.48;58.92;99580.34;5044626;28;20047;-92
2023/09/21 00:23:38;;;;;;;15.63;7.20;;;;;;;17.59;59.01;99602.75;5040652;28;20139;-92
2023/09/21 00:26:07;;;;;;;9.23;6.78;;;;;;;17.84;59.34;99651.25;5037144;28;20047;-90
2023/09/21 00:28:43;;;;;;;23.73;7.63;;;;;;;17.75;59.71;99641.50;5026710;28;20033;-90
2023/09/21 00:31:11;;;;;;;11.40;7.38;;;;;;;17.72;60.10;99633.91;5054752;28;20420;-90
2023/09/21 00:33:41;;;;;;;10.05;6.97;;;;;;;17.77;60.20;99648.28;5057363;28;20051;-91
2023/09/21 00:36:09;;;;;;;13.82;7.60;;;;;;;17.48;60.57;99599.69;5024503;28;20505;-89
2023/09/21 00:38:37;;;;;;;13.85;7.47;;;;;;;18.17;60.60;99721.28;5036706;28;20097;-89
2023/09/21 00:41:05;;;;;;;14.67;7.97;;;;;;;17.92;60.67;99679.94;5041645;28;20112;-90
2023/09/21 00:43:34;;;;;;;10.93;7.75;;;;;;;18.14;60.90;99710.94;5040535;28;20128;-91
2023/09/21 00:46:06;;;;;;;12.25;7.82;;;;;;;17.95;60.93;99704.13;5021010;28;20035;-91
2023/09/21 00:48:38;;;;;;;13.95;8.15;;;;;;;17.64;60.90;99649.47;5026327;28;20041;-91
2023/09/21 00:51:07;;;;;;;21.38;8.52;;;;;;;17.83;61.46;99684.81;5027914;28;20045;-91
2023/09/21 00:53:36;;;;;;;10.73;7.85;;;;;;;17.69;61.95;99665.81;5042083;28;20037;-90
2023/09/21 00:56:08;;;;;;;16.73;8.18;;;;;;;17.80;62.17;99679.97;5040329;28;20037;-91
2023/09/21 00:58:50;;;;;;;18.38;8.98;;;;;;;17.92;62.43;99699.28;5044039;28;20047;-90
2023/09/21 01:01:31;;;;;;;14.38;8.35;;;;;;;17.48;62.38;99632.88;5044135;28;20036;-90
2023/09/21 01:04:06;;;;;;;15.40;8.07;;;;;;;17.42;62.77;99619.63;5022459;28;20056;-92
2023/09/21 01:06:33;;;;;;;13.73;8.50;;;;;;;17.65;62.82;99661.34;5040167;28;20040;-90
2023/09/21 01:09:03;;;;;;;12.88;8.23;;;;;;;17.63;63.23;99661.69;5003000;28;20076;-92
2023/09/21 01:11:30;;;;;;;17.00;8.70;;;;;;;17.37;63.44;99624.25;5021132;28;20045;-91
2023/09/21 01:13:59;;;;;;;19.15;9.32;;;;;;;17.84;63.58;99709.31;5003258;28;20044;-90
2023/09/21 01:16:27;;;;;;;22.10;9.10;;;;;;;17.98;63.94;99724.72;5020135;28;20052;-90
2023/09/21 01:18:53;;;;;;;13.67;8.50;;;;;;;17.36;64.30;99639.22;4992062;28;20046;-91
2023/09/21 01:21:26;;;;;;;13.35;8.93;;;;;;;17.35;64.56;99643.16;5002684;28;20038;-92
2023/09/21 01:23:56;;;;;;;19.17;9.40;;;;;;;17.34;64.90;99662.84;4997961;28;20077;-90
2023/09/21 01:26:24;;;;;;;15.18;8.75;;;;;;;17.53;64.84;99687.88;5018127;28;20068;-91
2023/09/21 01:28:56;;;;;;;17.05;9.43;;;;;;;17.60;64.97;99692.81;5024614;28;20072;-91
2023/09/21 01:31:23;;;;;;;14.68;9.43;;;;;;;17.28;65.27;99644.88;5024521;28;20139;-91
2023/09/21 01:33:49;;;;;;;20.20;9.73;;;;;;;17.47;65.71;99688.47;5012936;28;20049;-91
2023/09/21 01:36:16;;;;;;;17.75;8.82;;;;;;;17.94;65.70;99755.03;4995628;28;20092;-92
2023/09/21 01:38:59;;;;;;;13.85;9.95;;;;;;;17.53;65.86;99681.56;5016521;28;20049;-92
2023/09/21 01:41:25;;;;;;;19.40;10.17;;;;;;;17.34;65.94;99654.53;5007082;28;20136;-93
2023/09/21 01:44:03;;;;;;;16.08;9.82;;;;;;;17.20;66.46;99651.38;5022034;28;20047;-90
2023/09/21 01:46:33;;;;;;;18.70;9.35;;;;;;;17.67;66.73;99726.19;5038055;28;20096;-89
2023/09/21 01:48:59;;;;;;;13.13;9.35;;;;;;;17.31;66.92;99672.63;5007351;28;20153;-93
2023/09/21 01:51:25;;;;;;;19.83;10.00;;;;;;;17.57;67.38;99716.44;4926019;29;20051;-91
2023/09/21 01:53:53;;;;;;;15.77;9.63;;;;;;;17.72;67.32;99745.31;4948242;28;20106;-91
2023/09/21 01:56:22;;;;;;;16.90;9.98;;;;;;;17.39;67.79;99695.75;4944347;28;20073;-93
2023/09/21 01:58:49;;;;;;;15.65;10.35;;;;;;;17.65;68.12;99741.50;4949193;28;20034;-91
2023/09/21 02:01:19;;;;;;;19.00;10.45;;;;;;;17.61;68.48;99728.41;4949566;29;20046;-89
2023/09/21 02:03:45;;;;;;;15.10;9.90;;;;;;;17.47;68.56;99721.66;4909769;29;20569;-89
2023/09/21 02:06:11;;;;;;;23.25;10.02;;;;;;;17.59;68.90;99727.16;4954858;28;20141;-89
2023/09/21 02:08:38;;;;;;;39.53;12.23;;;;;;;17.35;68.68;99690.13;4973087;28;20154;-91
2023/09/21 02:11:05;;;;;;;16.95;10.45;;;;;;;17.34;69.05;99698.75;4942356;28;20043;-91
2023/09/21 02:13:32;;;;;;;18.40;10.60;;;;;;;17.35;69.11;99708.66;4939423;29;20049;-89
2023/09/21 02:15:58;;;;;;;26.55;11.13;;;;;;;17.56;69.18;99739.72;4941929;28;20090;-91
2023/09/21 02:18:26;;;;;;;23.70;11.52;;;;;;;17.38;69.55;99710.72;4923509;28;20073;-92
2023/09/21 02:20:55;;;;;;;19.20;11.07;;;;;;;17.74;69.57;99764.31;4961941;28;20527;-90
2023/09/21 02:23:23;;;;;;;17.50;10.82;;;;;;;17.51;69.63;99742.69;4957810;28;20059;-91
2023/09/21 02:25:53;;;;;;;21.10;11.43;;;;;;;17.16;70.17;99675.31;4949994;28;20061;-90
2023/09/21 02:28:19;;;;;;;24.70;11.53;;;;;;;17.25;69.99;99703.59;5014188;28;20041;-91
2023/09/21 02:30:48;;;;;;;20.83;11.30;;;;;;;17.55;70.23;99740.06;4989569;28;20048;-92
2023/09/21 02:33:16;;;;;;;18.83;11.38;;;;;;;17.26;70.81;99703.28;5033046;28;20123;-91
2023/09/21 02:35:44;;;;;;;24.45;11.32;;;;;;;17.23;71.04;99712.25;5037447;28;20048;-90
2023/09/21 02:38:16;;;;;;;21.30;11.60;;;;;;;17.09;71.63;99698.81;4996276;28;20069;-90
2023/09/21 02:40:47;;;;;;;17.93;12.07;;;;;;;17.55;71.96;99774.03;5004856;28;20098;-90
2023/09/21 02:43:15;;;;;;;24.88;12.38;;;;;;;17.21;72.15;99708.22;5025156;28;20053;-89
2023/09/21 02:45:44;;;;;;;22.52;12.07;;;;;;;17.11;72.13;99702.00;5030850;28;20046;-90
2023/09/21 02:48:26;;;;;;;20.08;12.45;;;;;;;17.38;72.51;99746.63;5008315;28;20040;-91
2023/09/21 02:51:48;;;;;;;24.73;12.40;;;;;;;17.59;72.49;99765.84;5016961;28;20041;-90
2023/09/21 02:54:17;;;;;;;21.58;12.38;;;;;;;17.33;72.66;99741.38;5019469;28;20037;-91
2023/09/21 02:56:44;;;;;;;37.47;13.45;;;;;;;16.91;72.86;99681.66;5034792;28;20040;-90
2023/09/21 02:59:13;;;;;;;29.27;12.65;;;;;;;17.10;73.17;99716.97;5017555;28;20486;-90
2023/09/21 03:01:45;;;;;;;27.45;12.50;;;;;;;17.51;73.46;99775.88;5016802;28;20025;-91
2023/09/21 03:04:12;;;;;;;27.25;13.35;;;;;;;17.10;74.11;99710.66;5056425;28;20576;-90
2023/09/21 03:06:42;;;;;;;29.55;13.27;;;;;;;17.20;74.02;99729.53;5006275;28;20045;-90
2023/09/21 03:09:09;;;;;;;25.73;12.65;;;;;;;16.96;73.98;99677.06;5023461;28;20083;-90
2023/09/21 03:11:35;;;;;;;;;;;;;;;17.60;74.62;99784.03;5042027;28;20048;-91
2023/09/21 03:14:04;;;;;;;22.53;13.23;;;;;;;17.04;74.81;99710.06;5040359;28;19920;-89
2023/09/21 03:16:31;;;;;;;28.95;13.23;;;;;;;17.50;74.39;99785.31;5043371;28;20294;-91
2023/09/21 03:18:58;;;;;;;24.10;13.50;;;;;;;17.15;74.77;99735.28;5004137;28;20065;-90
2023/09/21 03:21:27;;;;;;;22.70;13.02;;;;;;;16.91;75.00;99706.50;5026678;28;20294;-91
2023/09/21 03:24:22;;;;;;;24.95;14.45;;;;;;;17.56;75.09;99800.53;5026387;28;20068;-90
2023/09/21 03:26:52;;;;;;;25.23;12.90;;;;;;;17.27;75.28;99768.41;5028754;28;20044;-90
2023/09/21 03:29:18;;;;;;;24.03;14.10;;;;;;;16.93;75.55;99728.28;5003467;28;20100;-91
2023/09/21 03:31:45;;;;;;;25.48;13.95;;;;;;;17.17;75.89;99757.84;5006291;28;20299;-91
2023/09/21 03:34:14;;;;;;;23.52;14.07;;;;;;;17.24;76.07;99782.13;5040325;28;20106;-88
2023/09/21 03:36:41;;;;;;;24.58;16.02;;;;;;;17.16;76.54;99772.00;5007440;28;20529;-92
2023/09/21 03:39:10;;;;;;;25.75;14.23;;;;;;;16.92;76.75;99734.97;5008735;28;20095;-90
2023/09/21 03:41:36;;;;;;;28.45;14.70;;;;;;;17.06;76.56;99753.94;5004349;28;20086;-91
2023/09/21 03:44:05;;;;;;;;;;;;;;;17.46;76.83;99825.88;5016636;28;20057;-90
2023/09/21 03:46:33;;;;;;;25.02;14.30;;;;;;;17.13;76.88;99768.78;5024868;28;19925;-92
2023/09/21 03:48:59;;;;;;;38.35;14.85;;;;;;;16.98;76.54;99736.31;5005104;28;20042;-91
2023/09/21 03:51:26;;;;;;;24.13;14.35;;;;;;;17.40;76.66;99790.53;4983014;28;20141;-90
2023/09/21 03:53:54;;;;;;;23.87;15.30;;;;;;;17.21;76.44;99758.75;5024379;28;20045;-92
2023/09/21 03:56:23;;;;;;;26.55;14.70;;;;;;;17.59;76.46;99815.63;5005533;28;20117;-91
2023/09/21 04:04:41;;;;;;;25.88;14.90;;;;;;;17.57;76.71;99828.97;5047280;23;20122;-92
2023/09/21 04:10:06;;;;;;;26.55;14.90;;;;;;;17.08;76.45;99733.09;4936607;29;20413;-91
2023/09/21 04:13:00;;;;;;;;;;;;;;;;;;;;;
2023/09/21 04:15:45;;;;;;;25.48;13.98;;;;;;;17.20;76.02;99742.53;4916491;28;20047;-90
2023/09/21 04:18:16;;;;;;;28.02;14.63;;;;;;;17.12;75.97;99736.78;4936064;29;20397;-89
2023/09/21 04:20:48;;;;;;;26.23;14.60;;;;;;;17.54;75.98;99805.59;4934416;29;20067;-89
2023/09/21 04:23:41;;;;;;;22.83;14.70;;;;;;;17.79;75.96;99842.34;4951446;29;20039;-92
2023/09/21 04:26:16;;;;;;;28.52;14.63;;;;;;;17.42;76.03;99790.97;4949546;29;20501;-89
2023/09/21 04:28:42;;;;;;;23.60;14.73;;;;;;;17.73;76.15;99826.31;4943444;29;20051;-90
2023/09/21 04:31:09;;;;;;;26.08;14.32;;;;;;;17.61;76.15;99805.84;4927362;29;20050;-90
2023/09/21 04:33:36;;;;;;;29.53;15.07;;;;;;;17.58;75.88;99813.97;4932513;29;20039;-90
2023/09/21 04:36:02;;;;;;;30.73;14.15;;;;;;;17.17;76.01;99741.25;4944540;29;20043;-92
2023/09/21 04:38:31;;;;;;;33.35;14.80;;;;;;;17.47;75.99;99783.25;4929898;29;20046;-89
2023/09/21 04:40:59;;;;;;;;;;;;;;;17.96;75.84;99851.53;4934292;29;20055;-90
2023/09/21 04:43:28;;;;;;;22.35;14.18;;;;;;;17.26;75.68;99749.44;4934432;29;19910;-90
2023/09/21 04:45:55;;;;;;;33.42;15.07;;;;;;;17.70;75.78;99825.03;4930235;29;20043;-90
2023/09/21 04:48:25;;;;;;;32.67;15.35;;;;;;;17.31;75.78;99754.72;4940058;29;20130;-90
2023/09/21 04:50:52;;;;;;;42.50;14.90;;;;;;;17.42;75.43;99764.16;4934030;29;20104;-90
2023/09/21 04:53:19;;;;;;;76.85;16.25;;;;;;;17.84;75.28;99824.69;4909942;29;20043;-89
2023/09/21 04:55:48;;;;;;;54.67;15.60;;;;;;;17.88;75.47;99820.09;4930862;28;20048;-90
2023/09/21 04:58:42;;;;;;;32.85;15.90;;;;;;;17.41;75.28;99757.00;4937873;29;20047;-87
2023/09/21 05:01:10;;;;;;;41.77;15.27;;;;;;;17.71;75.29;99798.97;4911142;28;20077;-90
2023/09/21 05:03:42;;;;;;;25.83;14.95;;;;;;;17.94;75.39;99846.31;4926857;29;20047;-89
2023/09/21 05:06:11;;;;;;;32.35;14.88;;;;;;;18.11;75.52;99881.22;4925250;29;20068;-90
2023/09/21 05:09:18;;;;;;;37.47;15.13;;;;;;;18.18;75.59;99875.09;4926250;29;20044;-91
2023/09/21 05:11:45;;;;;;;51.72;15.52;;;;;;;17.76;75.44;99818.16;4869240;29;20151;-89
2023/09/21 05:14:15;;;;;;;28.70;15.40;;;;;;;17.91;75.22;99847.03;4888477;29;20196;-89
2023/09/21 05:16:43;;;;;;;36.97;14.63;;;;;;;17.97;75.31;99851.16;4897607;29;20053;-88
2023/09/21 05:19:12;;;;;;;22.23;14.25;;;;;;;18.18;75.24;99886.16;4860614;29;20393;-90
2023/09/21 05:21:43;;;;;;;28.10;14.80;;;;;;;17.54;75.22;99769.66;4899977;29;20041;-90
2023/09/21 05:24:43;;;;;;;27.50;14.38;;;;;;;17.99;74.95;99848.06;4927663;29;20448;-89
2023/09/21 05:27:51;;;;;;;29.60;15.38;;;;;;;18.25;75.20;99883.63;4870173;29;20052;-92
2023/09/21 05:30:23;;;;;;;30.13;15.27;;;;;;;17.88;75.05;99831.16;4911281;29;20036;-89
2023/09/21 05:32:56;;;;;;;26.80;15.50;;;;;;;17.91;74.81;99826.88;4864363;29;20045;-92
2023/09/21 05:35:23;;;;;;;28.88;14.90;;;;;;;17.87;75.00;99817.66;4887698;29;20050;-90
2023/09/21 05:37:50;;;;;;;24.13;14.67;;;;;;;18.26;74.91;99863.09;4856466;29;20036;-92
2023/09/21 05:40:16;;;;;;;24.85;14.75;;;;;;;18.19;74.59;99857.34;4840365;29;20041;-92
2023/09/21 05:44:10;;;;;;;30.40;14.98;;;;;;;18.42;74.73;99897.16;4856119;29;20061;-90
2023/09/21 05:47:59;;;;;;;26.13;15.32;;;;;;;18.50;74.44;99892.63;4871601;29;20071;-90
2023/09/21 05:50:57;;;;;;;29.27;16.23;;;;;;;18.21;73.70;99844.78;4863722;29;20096;-91
2023/09/21 05:53:49;;;;;;;28.73;15.82;;;;;;;18.55;74.02;99903.47;4873054;29;20051;-87
2023/09/21 05:56:19;;;;;;;31.05;15.85;;;;;;;18.53;74.32;99903.81;4871715;29;20057;-89
2023/09/21 05:59:51;;;;;;;33.92;15.68;;;;;;;18.57;73.93;99906.66;4861077;29;20038;-92
2023/09/21 06:02:28;;;;;;;27.92;16.23;;;;;;;18.20;73.83;99848.69;4833235;29;20591;-90
2023/09/21 06:05:00;;;;;;;31.33;15.48;;;;;;;17.97;73.66;99815.19;4839479;29;20102;-91
2023/09/21 06:07:27;;;;;;;25.52;16.33;;;;;;;18.03;74.22;99827.63;4819327;29;20060;-88
2023/09/21 06:10:39;;;;;;;33.45;17.50;;;;;;;18.66;74.41;99925.91;4818125;29;20064;-90
2023/09/21 06:13:37;;;;;;;61.58;20.13;;;;;;;18.71;73.61;99926.47;4833161;29;20105;-88
2023/09/21 06:16:23;;;;;;;53.35;17.73;;;;;;;18.78;73.38;99931.44;4843820;29;20547;-90
2023/09/21 06:18:52;;;;;;;33.72;16.88;;;;;;;18.82;73.10;99917.69;4863111;29;20046;-91
2023/09/21 06:21:21;;;;;;;32.20;17.00;;;;;;;18.56;73.15;99880.16;4899615;29;20052;-90
2023/09/21 06:23:53;;;;;;;32.42;17.15;;;;;;;18.38;73.06;99843.66;4890111;29;20069;-89
2023/09/21 06:26:19;;;;;;;46.63;22.95;;;;;;;18.89;72.52;99910.38;4875606;29;20044;-88
2023/09/21 06:28:47;;;;;;;52.50;23.55;;;;;;;18.59;72.66;99849.00;4886786;29;20041;-90
2023/09/21 06:31:22;;;;;;;36.35;18.05;;;;;;;19.09;71.40;99918.81;4906601;29;20096;-89
2023/09/21 06:36:37;;;;;;;32.20;18.00;;;;;;;18.87;71.31;99867.56;4883418;29;20051;-91
2023/09/21 06:39:06;;;;;;;37.17;17.27;;;;;;;19.25;71.38;99925.19;4900764;29;20069;-88
2023/09/21 06:41:33;;;;;;;34.17;17.92;;;;;;;19.24;70.71;99904.19;4905373;29;20136;-91
2023/09/21 06:44:03;;;;;;;26.45;16.48;;;;;;;19.36;70.87;99929.03;4868124;29;20055;-88
2023/09/21 06:46:29;;;;;;;32.53;16.65;;;;;;;19.35;70.39;99930.19;4884874;29;20076;-88
2023/09/21 06:48:57;;;;;;;30.42;16.75;;;;;;;19.10;70.32;99881.63;4884193;29;20051;-89
2023/09/21 06:51:23;;;;;;;40.83;19.30;;;;;;;19.49;70.29;99936.09;4890522;29;20042;-88
2023/09/21 06:53:50;;;;;;;38.60;18.67;;;;;;;19.33;69.97;99907.56;4906414;29;20051;-88
2023/09/21 06:56:34;;;;;;;26.70;16.30;;;;;;;19.32;69.30;99897.63;4909553;29;20051;-88
2023/09/21 06:59:06;;;;;;;32.08;16.48;;;;;;;19.57;69.43;99936.28;4895319;29;20037;-87
2023/09/21 07:01:35;;;;;;;44.08;16.67;;;;;;;19.61;69.83;99934.41;4909719;29;20085;-86
2023/09/21 07:04:04;;;;;;;31.13;14.68;;;;;;;19.24;69.27;99846.78;4896483;29;20048;-91
2023/09/21 07:06:33;;;;;;;32.90;15.40;;;;;;;19.87;68.60;99937.47;4893607;29;20051;-91
2023/09/21 07:09:28;;;;;;;31.10;13.45;;;;;;;19.93;66.54;99924.91;4880634;29;20107;-91
2023/09/21 07:11:57;;;;;;;21.25;14.43;;;;;;;19.94;66.73;99914.63;4893791;29;20112;-90
2023/09/21 07:14:24;;;;;;;27.57;13.90;;;;;;;19.74;66.97;99863.03;4861038;29;20037;-89
2023/09/21 07:16:54;;;;;;;25.42;14.55;;;;;;;20.02;65.99;99894.19;4860698;29;20362;-89
2023/09/21 07:19:22;;;;;;;24.20;14.00;;;;;;;20.38;65.12;99923.53;4861705;29;20051;-91
2023/09/21 07:22:03;;;;;;;30.13;14.73;;;;;;;20.04;65.62;99872.44;4836181;29;20045;-92
2023/09/21 07:24:31;;;;;;;21.30;13.05;;;;;;;20.49;65.25;99934.03;4893912;29;20036;-91
2023/09/21 07:26:57;;;;;;;32.58;13.82;;;;;;;20.36;64.96;99897.28;4859733;29;20037;-89
2023/09/21 07:29:31;;;;;;;30.27;13.27;;;;;;;20.54;62.07;99934.59;4876025;29;20053;-90
2023/09/21 07:32:04;;;;;;;19.00;12.75;;;;;;;20.38;62.83;99909.63;4871711;29;20052;-90
2023/09/21 07:34:41;;;;;;;89.97;17.45;;;;;;;20.63;62.71;99937.97;4874610;29;20048;-88
2023/09/21 07:37:12;;;;;;;25.55;12.27;;;;;;;20.49;62.15;99909.06;4874047;29;20048;-89
2023/09/21 07:40:08;;;;;;;18.35;11.48;;;;;;;20.56;61.03;99910.06;4888120;29;20052;-90
2023/09/21 07:42:50;;;;;;;23.73;12.52;;;;;;;20.59;60.77;99934.28;4874867;29;20048;-89
2023/09/21 07:45:22;;;;;;;24.40;11.05;;;;;;;20.78;60.87;99938.25;4872281;29;20044;-89
2023/09/21 07:47:54;;;;;;;42.80;13.90;;;;;;;20.89;61.64;99936.47;4868429;29;20105;-89
2023/09/21 07:50:26;;;;;;;41.55;13.02;;;;;;;21.00;61.82;99940.28;4904583;29;20041;-86
2023/09/21 07:52:56;;;;;;;62.28;14.05;;;;;;;21.02;59.77;99928.78;4841020;29;20097;-87
2023/09/21 07:55:22;;;;;;;32.40;12.05;;;;;;;20.82;59.44;99895.47;4890169;29;20072;-88
2023/09/21 07:58:10;;;;;;;42.67;12.20;;;;;;;20.72;58.82;99876.59;4870532;29;20079;-87
2023/09/21 08:00:36;;;;;;;21.95;11.65;;;;;;;21.02;59.16;99923.22;4883814;29;20481;-87
2023/09/21 08:03:12;;;;;;;23.52;11.73;;;;;;;20.86;59.59;99893.56;4856638;29;20049;-87
2023/09/21 08:06:05;;;;;;;24.38;11.93;;;;;;;21.14;58.59;99927.81;4875986;29;20149;-87
2023/09/21 08:08:34;;;;;;;22.83;11.63;;;;;;;21.48;58.34;99957.47;4856038;29;20053;-87
2023/09/21 08:11:02;;;;;;;20.77;12.30;;;;;;;21.15;57.88;99930.22;4834912;29;20553;-86
2023/09/21 08:13:33;;;;;;;26.77;11.90;;;;;;;21.19;57.58;99935.84;4876206;29;20044;-88
2023/09/21 08:16:01;;;;;;;20.42;10.82;;;;;;;21.06;57.56;99915.78;4893775;29;20047;-86
2023/09/21 08:19:16;;;;;;;26.52;10.70;;;;;;;21.26;57.61;99952.69;4882158;29;20053;-86
2023/09/21 08:21:47;;;;;;;20.45;11.27;;;;;;;21.22;58.07;99952.59;4881247;29;20061;-86
2023/09/21 08:24:15;;;;;;;28.65;12.13;;;;;;;21.18;57.94;99923.91;4897120;29;20052;-88
2023/09/21 08:26:45;;;;;;;25.25;12.00;;;;;;;21.23;57.86;99911.72;4849284;29;20060;-88
2023/09/21 08:29:41;;;;;;;36.17;11.57;;;;;;;21.13;58.16;99885.31;4863662;29;20057;-87
2023/09/21 08:32:14;;;;;;;23.52;11.05;;;;;;;21.18;57.06;99885.00;4880021;29;20041;-88
2023/09/21 08:35:03;;;;;;;36.28;12.60;;;;;;;21.23;57.28;99883.91;4886643;29;20068;-90
2023/09/21 08:37:57;;;;;;;68.60;14.15;;;;;;;21.87;56.74;99967.66;4896866;29;20049;-87
2023/09/21 08:40:24;;;;;;;23.45;11.25;;;;;;;21.75;56.36;99940.81;4895350;29;20063;-87
2023/09/21 08:42:55;;;;;;;30.85;11.65;;;;;;;21.73;56.28;99930.06;4901199;29;20093;-90
2023/09/21 08:45:25;;;;;;;58.60;14.18;;;;;;;21.85;55.21;99939.38;4886631;29;20117;-93
2023/09/21 08:48:02;;;;;;;41.80;13.35;;;;;;;21.53;55.74;99884.03;4885915;29;20049;-87
2023/09/21 08:50:51;;;;;;;36.85;11.80;;;;;;;21.95;55.05;99949.88;4884013;29;20499;-89
2023/09/21 08:53:22;;;;;;;26.17;11.10;;;;;;;21.92;54.71;99981.22;4858178;29;20201;-90
2023/09/21 08:56:05;;;;;;;21.80;11.45;;;;;;;21.38;55.24;99926.69;4844461;29;20053;-88
2023/09/21 08:59:23;;;;;;;26.38;12.32;;;;;;;21.68;55.80;99982.44;4856698;29;20073;-89
2023/09/21 09:02:40;;;;;;;16.20;11.35;;;;;;;21.22;55.90;99918.41;4988854;23;20144;-88
2023/09/21 09:05:07;;;;;;;;;;;;;;;21.66;56.87;99974.47;4931399;28;20050;-89
2023/09/21 09:07:41;;;;;;;22.70;12.10;;;;;;;21.58;56.95;99937.34;4981923;28;20009;-86
2023/09/21 09:10:12;;;;;;;38.45;18.60;;;;;;;21.78;56.46;99963.13;4969815;28;20508;-87
2023/09/21 09:12:40;;;;;;;37.80;20.42;;;;;;;21.31;55.54;99905.88;4949764;28;20045;-88
2023/09/21 09:15:37;;;;;;;37.33;18.02;;;;;;;21.58;56.49;99931.00;4948335;28;20070;-89
2023/09/21 09:19:05;;;;;;;57.08;18.02;;;;;;;22.01;56.48;99987.34;4954642;28;20094;-91
2023/09/21 09:21:56;;;;;;;36.17;15.52;;;;;;;21.77;55.60;99935.69;4939396;29;20056;-88
2023/09/21 09:24:29;;;;;;;26.02;12.10;;;;;;;22.05;55.70;99982.63;4917473;29;20056;-89
2023/09/21 09:28:24;;;;;;;74.32;30.38;;;;;;;22.02;55.81;99991.75;4914807;29;20103;-89
2023/09/21 09:30:53;;;;;;;84.50;45.73;;;;;;;21.65;56.70;99908.06;4908737;29;20043;-89
2023/09/21 09:33:25;;;;;;;40.45;24.92;;;;;;;21.77;55.18;99932.91;4925782;29;20785;-90
2023/09/21 09:37:32;;;;;;;46.03;23.90;;;;;;;22.12;55.93;99991.13;4936055;29;20052;-91
2023/09/21 09:40:51;;;;;;;48.35;24.13;;;;;;;22.22;56.16;99990.50;5044568;23;20069;-90
2023/09/21 09:43:52;;;;;;;61.75;30.30;;;;;;;21.86;54.61;99943.78;4960918;28;20898;-91
2023/09/21 09:46:46;;;;;;;30.83;16.98;;;;;;;21.41;55.08;99904.50;4994851;23;20059;-90
2023/09/21 09:49:14;;;;;;;26.70;13.15;;;;;;;21.35;55.31;99917.91;4916566;28;20082;-90
2023/09/21 09:51:46;;;;;;;60.17;31.85;;;;;;;21.60;56.65;99964.81;4960570;28;20043;-86
2023/09/21 09:54:14;;;;;;;43.05;24.55;;;;;;;21.72;56.65;99961.84;4942582;28;20105;-88
2023/09/21 09:57:11;;;;;;;72.50;48.08;;;;;;;21.86;56.23;99969.63;4976516;28;20082;-86
2023/09/21 10:00:21;;;;;;;;;;;;;;;22.16;56.32;100007.91;4957959;28;20088;-91
2023/09/21 10:03:37;;;;;;;82.22;35.65;;;;;;;22.23;55.96;99999.66;4967384;28;19949;-91
2023/09/21 10:06:30;;;;;;;436.25;306.02;;;;;;;21.77;56.02;99928.13;4982939;23;20119;-85
2023/09/21 10:09:27;;;;;;;173.45;106.03;;;;;;;22.28;55.86;99997.38;4975970;28;20559;-85
2023/09/21 10:11:58;;;;;;;46.92;24.70;;;;;;;21.93;55.95;99955.81;4976541;28;20046;-87
2023/09/21 10:14:25;;;;;;;30.98;16.33;;;;;;;22.20;55.65;100005.97;4980259;28;20117;-85
2023/09/21 10:17:04;;;;;;;84.55;21.50;;;;;;;22.16;56.43;99989.22;4997405;28;20065;-87
2023/09/21 10:19:38;;;;;;;83.10;50.60;;;;;;;22.01;56.68;99962.28;4966788;28;20056;-85
2023/09/21 10:22:27;;;;;;;43.15;20.08;;;;;;;22.20;55.46;100014.34;4992840;28;20044;-87
2023/09/21 10:25:00;;;;;;;34.17;15.73;;;;;;;21.81;55.71;99962.38;4934515;28;20062;-89
2023/09/21 10:27:36;;;;;;;40.53;17.40;;;;;;;22.00;56.67;99978.19;4978899;28;20038;-87
2023/09/21 10:30:09;;;;;;;70.90;27.70;;;;;;;22.05;56.07;99985.41;5004756;28;20093;-86
2023/09/21 10:32:50;;;;;;;62.30;29.95;;;;;;;21.91;55.90;99960.94;4986540;28;20093;-87
2023/09/21 10:35:49;;;;;;;116.93;44.35;;;;;;;22.10;55.87;100012.97;4960847;28;20492;-87
2023/09/21 10:38:19;;;;;;;47.90;24.73;;;;;;;22.02;56.03;100008.47;4947645;28;20050;-86
2023/09/21 10:41:47;;;;;;;67.38;25.58;;;;;;;22.05;55.18;100010.47;4941538;28;20242;-88
2023/09/21 10:44:52;;;;;;;59.80;26.35;;;;;;;21.82;55.64;99979.91;4963348;28;20065;-85
2023/09/21 10:47:50;;;;;;;54.50;26.37;;;;;;;22.09;55.48;100010.56;4997218;28;20058;-86
2023/09/21 10:50:54;;;;;;;51.28;26.05;;;;;;;21.87;56.18;99967.66;4887515;29;20218;-86
2023/09/21 10:53:36;;;;;;;53.17;25.63;;;;;;;21.94;56.44;99990.03;4898907;29;20089;-88
2023/09/21 10:56:12;;;;;;;44.25;22.15;;;;;;;21.69;54.98;99959.00;4890835;29;20047;-88
2023/09/21 10:58:40;;;;;;;47.80;23.77;;;;;;;21.80;56.26;99971.91;4891878;29;20142;-91
2023/09/21 11:01:33;;;;;;;47.17;24.00;;;;;;;21.93;56.64;100008.72;4868203;29;20060;-89
2023/09/21 11:03:59;;;;;;;53.45;24.23;;;;;;;21.62;56.88;99973.59;4856137;29;20079;-90
2023/09/21 11:06:31;;;;;;;60.65;23.77;;;;;;;21.79;56.78;100012.06;4887696;29;20698;-86
2023/09/21 11:09:35;;;;;;;106.78;29.35;;;;;;;21.28;56.44;99947.53;4892567;29;20554;-88
2023/09/21 11:12:02;;;;;;;82.70;25.88;;;;;;;21.58;57.12;100004.13;4884358;29;20048;-86
2023/09/21 11:14:31;;;;;;;80.50;27.05;;;;;;;21.34;57.20;99962.75;4904065;29;20052;-85
2023/09/21 11:16:57;;;;;;;59.78;25.52;;;;;;;21.39;56.79;99979.19;4872188;29;20461;-87
2023/09/21 11:19:24;;;;;;;53.90;26.27;;;;;;;21.54;57.81;99996.91;4902282;29;20055;-88
2023/09/21 11:21:51;;;;;;;73.88;26.40;;;;;;;21.56;57.57;100000.13;4902521;29;20076;-88
2023/09/21 11:24:22;;;;;;;64.40;27.67;;;;;;;21.58;57.91;99992.19;4859091;29;20481;-90
2023/09/21 11:27:25;;;;;;;57.05;25.70;;;;;;;21.78;57.89;100004.06;4903122;28;20050;-90
2023/09/21 11:30:05;;;;;;;69.43;29.63;;;;;;;21.77;57.56;99991.34;4983152;28;20062;-87
2023/09/21 11:32:41;;;;;;;63.85;25.08;;;;;;;22.00;57.16;100002.47;4991890;28;20069;-89
2023/09/21 11:35:35;;;;;;;55.90;23.92;;;;;;;21.87;56.84;99960.09;4970025;28;20065;-87
2023/09/21 11:38:03;;;;;;;57.22;23.45;;;;;;;21.99;57.85;99957.13;4924264;29;20112;-90
2023/09/21 11:40:39;;;;;;;40.85;22.55;;;;;;;22.33;57.33;99998.22;4934386;29;20063;-92
2023/09/21 11:43:16;;;;;;;43.33;18.38;;;;;;;21.79;56.07;99913.88;4888911;29;20119;-91
2023/09/21 11:46:03;;;;;;;31.45;17.75;;;;;;;22.25;55.59;99995.34;4897999;29;20469;-91
2023/09/21 11:48:32;;;;;;;35.97;16.98;;;;;;;22.14;56.10;99979.59;4930009;29;20052;-87
2023/09/21 11:55:07;;;;;;;33.58;17.10;;;;;;;21.88;57.02;99939.44;4925587;29;20112;-91
2023/09/21 11:57:59;;;;;;;;;;;;;;;22.28;56.44;99991.78;4923364;29;20110;-90
2023/09/21 12:03:37;;;;;;;44.97;21.38;;;;;;;22.37;56.50;99987.91;4851324;29;20064;-88
2023/09/21 12:06:18;;;;;;;36.13;14.98;;;;;;;22.37;55.54;100001.84;4863768;29;20049;-87
2023/09/21 12:09:12;;;;;;;38.95;16.30;;;;;;;22.28;56.33;99997.38;4845563;29;20054;-87
2023/09/21 12:12:12;;;;;;;32.50;15.50;;;;;;;22.12;56.61;99985.56;4845031;29;20117;-87
2023/09/21 12:14:42;;;;;;;49.17;16.67;;;;;;;22.21;56.67;99993.66;4856010;29;20736;-89
2023/09/21 12:17:10;;;;;;;31.85;15.82;;;;;;;22.29;56.27;100003.75;4850521;29;20061;-89
2023/09/21 12:19:38;;;;;;;48.78;15.63;;;;;;;22.04;56.62;99961.53;4867042;29;20036;-88
2023/09/21 12:22:18;;;;;;;32.88;14.88;;;;;;;22.24;57.02;100004.03;4898581;29;20133;-89
2023/09/21 12:25:02;;;;;;;32.85;15.05;;;;;;;22.02;56.64;99966.72;4902480;29;20069;-87